aviador You're here:

KDFW Decoded Metar

DALLAS-FORT WORTH in TX, USA
Report Time2018-01-18 09:53:00
UTC Time2018-01-18 10:09:23
Flight Rules vfr VFR
Wind200° at 06 kt
W.Decomp.*RWY 18: 5.8 kt HW 1.5 kt RCW
RWY 17: 5.5 kt HW 2.4 kt RCW
RWY 13: 2.6 kt HW 5.4 kt RCW
W.Rank200° ranks 6
Current wind is below 200° avg. (10.3)
Visibility9999 m
Phenomena:N/A
Clouds:N/A
Expected CloudBase > 2,400 ft AGL from Temp-Dew spread
CeilingNone
Temp-7°C (ISA -21)
Dew Point-13°C (63% RH)
AAT-12.4°C
QNH1034 hPa
Density Alt-2,700 ft
Elevation571 ft
Report Wrong Elevation
Raw Report
METAR KDFW 180953Z 20006KT 10SM CLR M07/M13 A3053 RMK AO2 SLP344 T10671128
$=

Extra information for KDFW:More info

Metar Taf Metar & Taf Last 4 Metars F.Rules Stats Wind Profile Meteogram Temp Stats Airport Information Weather charts Add Link Nearby VenuesMetar ALERT Operation Metar Decoded Social comments

AIRNAV info for KDFW